sensor_id;sensor_type;location;lat;lon;timestamp;P1;durP1;ratioP1;P2;durP2;ratioP2
48076;SDS011;33854;57.708;12.008;2023-05-16T00:02:06;20.23;;;15.63;;
48076;SDS011;33854;57.708;12.008;2023-05-16T00:04:32;26.08;;;18.20;;
48076;SDS011;33854;57.708;12.008;2023-05-16T00:06:58;22.60;;;18.60;;
48076;SDS011;33854;57.708;12.008;2023-05-16T00:09:23;19.13;;;17.20;;
48076;SDS011;33854;57.708;12.008;2023-05-16T00:11:49;19.47;;;17.43;;
48076;SDS011;33854;57.708;12.008;2023-05-16T00:14:15;21.97;;;18.53;;
48076;SDS011;33854;57.708;12.008;2023-05-16T00:16:40;20.70;;;17.63;;
48076;SDS011;33854;57.708;12.008;2023-05-16T00:19:06;25.73;;;18.53;;
48076;SDS011;33854;57.708;12.008;2023-05-16T00:21:31;23.23;;;18.37;;
48076;SDS011;33854;57.708;12.008;2023-05-16T00:23:57;17.87;;;15.53;;
48076;SDS011;33854;57.708;12.008;2023-05-16T00:26:23;19.30;;;16.63;;
48076;SDS011;33854;57.708;12.008;2023-05-16T00:28:48;21.07;;;16.70;;
48076;SDS011;33854;57.708;12.008;2023-05-16T00:31:13;20.43;;;15.87;;
48076;SDS011;33854;57.708;12.008;2023-05-16T00:33:39;20.70;;;15.90;;
48076;SDS011;33854;57.708;12.008;2023-05-16T00:36:05;18.37;;;16.20;;
48076;SDS011;33854;57.708;12.008;2023-05-16T00:38:30;16.53;;;14.63;;
48076;SDS011;33854;57.708;12.008;2023-05-16T00:40:56;18.27;;;15.53;;
48076;SDS011;33854;57.708;12.008;2023-05-16T00:43:21;17.47;;;15.63;;
48076;SDS011;33854;57.708;12.008;2023-05-16T00:45:46;19.00;;;16.13;;
48076;SDS011;33854;57.708;12.008;2023-05-16T00:48:12;20.50;;;15.90;;
48076;SDS011;33854;57.708;12.008;2023-05-16T00:50:38;16.98;;;15.18;;
48076;SDS011;33854;57.708;12.008;2023-05-16T00:53:04;20.50;;;16.43;;
48076;SDS011;33854;57.708;12.008;2023-05-16T00:55:30;18.00;;;16.13;;
48076;SDS011;33854;57.708;12.008;2023-05-16T00:57:56;17.92;;;15.48;;
48076;SDS011;33854;57.708;12.008;2023-05-16T01:00:22;18.98;;;16.25;;
48076;SDS011;33854;57.708;12.008;2023-05-16T01:02:48;20.17;;;15.50;;
48076;SDS011;33854;57.708;12.008;2023-05-16T01:05:16;19.15;;;17.15;;
48076;SDS011;33854;57.708;12.008;2023-05-16T01:07:41;16.97;;;15.00;;
48076;SDS011;33854;57.708;12.008;2023-05-16T01:10:07;20.60;;;16.07;;
48076;SDS011;33854;57.708;12.008;2023-05-16T01:15:21;15.90;;;13.73;;
48076;SDS011;33854;57.708;12.008;2023-05-16T01:23:22;18.92;;;13.98;;
48076;SDS011;33854;57.708;12.008;2023-05-16T01:26:19;15.15;;;13.55;;
48076;SDS011;33854;57.708;12.008;2023-05-16T01:28:47;16.88;;;13.27;;
48076;SDS011;33854;57.708;12.008;2023-05-16T01:31:14;16.23;;;14.50;;
48076;SDS011;33854;57.708;12.008;2023-05-16T01:33:40;15.85;;;14.25;;
48076;SDS011;33854;57.708;12.008;2023-05-16T01:36:25;15.93;;;13.10;;
48076;SDS011;33854;57.708;12.008;2023-05-16T01:44:30;19.80;;;15.40;;
48076;SDS011;33854;57.708;12.008;2023-05-16T01:47:00;19.95;;;17.38;;
48076;SDS011;33854;57.708;12.008;2023-05-16T01:49:30;21.23;;;17.38;;
48076;SDS011;33854;57.708;12.008;2023-05-16T01:52:03;17.85;;;15.95;;
48076;SDS011;33854;57.708;12.008;2023-05-16T01:54:31;16.90;;;15.18;;
48076;SDS011;33854;57.708;12.008;2023-05-16T01:57:01;17.48;;;14.63;;
48076;SDS011;33854;57.708;12.008;2023-05-16T01:59:28;20.75;;;14.90;;
48076;SDS011;33854;57.708;12.008;2023-05-16T02:01:56;17.55;;;15.23;;
48076;SDS011;33854;57.708;12.008;2023-05-16T02:04:22;23.80;;;18.80;;
48076;SDS011;33854;57.708;12.008;2023-05-16T02:06:48;30.10;;;22.75;;
48076;SDS011;33854;57.708;12.008;2023-05-16T02:09:14;27.08;;;23.17;;
48076;SDS011;33854;57.708;12.008;2023-05-16T02:11:40;25.57;;;22.20;;
48076;SDS011;33854;57.708;12.008;2023-05-16T02:14:05;24.63;;;21.87;;
48076;SDS011;33854;57.708;12.008;2023-05-16T02:16:31;29.97;;;18.93;;
48076;SDS011;33854;57.708;12.008;2023-05-16T02:18:56;22.50;;;16.60;;
48076;SDS011;33854;57.708;12.008;2023-05-16T02:21:22;22.37;;;18.67;;
48076;SDS011;33854;57.708;12.008;2023-05-16T02:23:47;28.70;;;17.97;;
48076;SDS011;33854;57.708;12.008;2023-05-16T02:26:12;22.47;;;18.20;;
48076;SDS011;33854;57.708;12.008;2023-05-16T02:28:38;26.73;;;22.17;;
48076;SDS011;33854;57.708;12.008;2023-05-16T02:31:04;30.60;;;24.73;;
48076;SDS011;33854;57.708;12.008;2023-05-16T02:33:29;25.03;;;19.27;;
48076;SDS011;33854;57.708;12.008;2023-05-16T02:35:55;25.13;;;18.90;;
48076;SDS011;33854;57.708;12.008;2023-05-16T02:38:20;25.00;;;18.63;;
48076;SDS011;33854;57.708;12.008;2023-05-16T02:40:46;24.10;;;18.53;;
48076;SDS011;33854;57.708;12.008;2023-05-16T02:43:12;19.30;;;16.98;;
48076;SDS011;33854;57.708;12.008;2023-05-16T02:45:38;23.23;;;17.80;;
48076;SDS011;33854;57.708;12.008;2023-05-16T02:48:03;26.73;;;18.27;;
48076;SDS011;33854;57.708;12.008;2023-05-16T02:50:29;16.83;;;15.10;;
48076;SDS011;33854;57.708;12.008;2023-05-16T02:52:55;16.40;;;14.80;;
48076;SDS011;33854;57.708;12.008;2023-05-16T02:55:21;18.83;;;15.97;;
48076;SDS011;33854;57.708;12.008;2023-05-16T02:57:46;16.80;;;14.83;;
48076;SDS011;33854;57.708;12.008;2023-05-16T03:00:12;18.83;;;15.20;;
48076;SDS011;33854;57.708;12.008;2023-05-16T03:02:38;17.42;;;15.63;;
48076;SDS011;33854;57.708;12.008;2023-05-16T03:05:03;18.70;;;16.17;;
48076;SDS011;33854;57.708;12.008;2023-05-16T03:07:30;21.60;;;15.65;;
48076;SDS011;33854;57.708;12.008;2023-05-16T03:09:55;17.50;;;15.10;;
48076;SDS011;33854;57.708;12.008;2023-05-16T03:12:21;18.30;;;15.40;;
48076;SDS011;33854;57.708;12.008;2023-05-16T03:14:46;18.07;;;15.83;;
48076;SDS011;33854;57.708;12.008;2023-05-16T03:17:12;17.77;;;15.97;;
48076;SDS011;33854;57.708;12.008;2023-05-16T03:19:37;20.43;;;17.27;;
48076;SDS011;33854;57.708;12.008;2023-05-16T03:22:03;25.80;;;17.03;;
48076;SDS011;33854;57.708;12.008;2023-05-16T03:24:29;21.07;;;17.20;;
48076;SDS011;33854;57.708;12.008;2023-05-16T03:26:54;19.67;;;16.73;;
48076;SDS011;33854;57.708;12.008;2023-05-16T03:29:20;20.40;;;18.13;;
48076;SDS011;33854;57.708;12.008;2023-05-16T03:31:45;20.97;;;17.77;;
48076;SDS011;33854;57.708;12.008;2023-05-16T03:34:10;23.07;;;20.07;;
48076;SDS011;33854;57.708;12.008;2023-05-16T03:36:37;24.30;;;19.83;;
48076;SDS011;33854;57.708;12.008;2023-05-16T03:39:03;22.13;;;19.17;;
48076;SDS011;33854;57.708;12.008;2023-05-16T03:41:29;24.80;;;20.77;;
48076;SDS011;33854;57.708;12.008;2023-05-16T03:43:54;23.27;;;20.80;;
48076;SDS011;33854;57.708;12.008;2023-05-16T03:46:20;26.83;;;22.70;;
48076;SDS011;33854;57.708;12.008;2023-05-16T03:48:45;22.57;;;20.17;;
48076;SDS011;33854;57.708;12.008;2023-05-16T03:51:11;25.30;;;19.67;;
48076;SDS011;33854;57.708;12.008;2023-05-16T03:53:36;23.53;;;19.23;;
48076;SDS011;33854;57.708;12.008;2023-05-16T03:56:02;49.87;;;39.43;;
48076;SDS011;33854;57.708;12.008;2023-05-16T03:58:28;35.90;;;28.23;;
48076;SDS011;33854;57.708;12.008;2023-05-16T04:00:53;30.30;;;24.23;;
48076;SDS011;33854;57.708;12.008;2023-05-16T04:03:19;36.60;;;25.37;;
48076;SDS011;33854;57.708;12.008;2023-05-16T04:05:44;30.20;;;24.13;;
48076;SDS011;33854;57.708;12.008;2023-05-16T04:08:10;32.50;;;24.80;;
48076;SDS011;33854;57.708;12.008;2023-05-16T04:10:35;37.30;;;27.20;;
48076;SDS011;33854;57.708;12.008;2023-05-16T04:13:01;46.40;;;24.23;;
48076;SDS011;33854;57.708;12.008;2023-05-16T04:15:26;45.37;;;32.00;;
48076;SDS011;33854;57.708;12.008;2023-05-16T04:17:52;42.67;;;29.93;;
48076;SDS011;33854;57.708;12.008;2023-05-16T04:20:17;44.00;;;29.40;;
48076;SDS011;33854;57.708;12.008;2023-05-16T04:22:43;39.17;;;26.50;;
48076;SDS011;33854;57.708;12.008;2023-05-16T04:25:08;37.43;;;27.03;;
48076;SDS011;33854;57.708;12.008;2023-05-16T04:27:35;41.88;;;29.83;;
48076;SDS011;33854;57.708;12.008;2023-05-16T04:30:00;50.77;;;37.27;;
48076;SDS011;33854;57.708;12.008;2023-05-16T04:32:26;43.47;;;31.97;;
48076;SDS011;33854;57.708;12.008;2023-05-16T04:34:52;40.33;;;28.80;;
48076;SDS011;33854;57.708;12.008;2023-05-16T04:37:18;41.47;;;29.13;;
48076;SDS011;33854;57.708;12.008;2023-05-16T04:39:44;38.10;;;28.23;;
48076;SDS011;33854;57.708;12.008;2023-05-16T04:42:10;42.05;;;30.85;;
48076;SDS011;33854;57.708;12.008;2023-05-16T04:44:36;38.40;;;27.50;;
48076;SDS011;33854;57.708;12.008;2023-05-16T04:47:01;42.50;;;28.60;;
48076;SDS011;33854;57.708;12.008;2023-05-16T04:49:27;37.67;;;27.07;;
48076;SDS011;33854;57.708;12.008;2023-05-16T04:51:52;41.80;;;28.70;;
48076;SDS011;33854;57.708;12.008;2023-05-16T04:54:18;38.20;;;27.63;;
48076;SDS011;33854;57.708;12.008;2023-05-16T04:56:43;39.73;;;29.60;;
48076;SDS011;33854;57.708;12.008;2023-05-16T04:59:09;43.57;;;30.30;;
48076;SDS011;33854;57.708;12.008;2023-05-16T05:01:34;46.07;;;30.10;;
48076;SDS011;33854;57.708;12.008;2023-05-16T05:04:00;44.77;;;30.67;;
48076;SDS011;33854;57.708;12.008;2023-05-16T05:06:25;39.37;;;28.17;;
48076;SDS011;33854;57.708;12.008;2023-05-16T05:08:51;37.80;;;28.13;;
48076;SDS011;33854;57.708;12.008;2023-05-16T05:11:18;42.97;;;30.45;;
48076;SDS011;33854;57.708;12.008;2023-05-16T05:13:44;38.10;;;28.53;;
48076;SDS011;33854;57.708;12.008;2023-05-16T05:16:09;34.87;;;27.37;;
48076;SDS011;33854;57.708;12.008;2023-05-16T05:18:35;42.87;;;29.37;;
48076;SDS011;33854;57.708;12.008;2023-05-16T05:21:00;38.80;;;28.60;;
48076;SDS011;33854;57.708;12.008;2023-05-16T05:23:26;38.17;;;29.00;;
48076;SDS011;33854;57.708;12.008;2023-05-16T05:25:51;40.87;;;29.33;;
48076;SDS011;33854;57.708;12.008;2023-05-16T05:28:17;37.23;;;28.47;;
48076;SDS011;33854;57.708;12.008;2023-05-16T05:30:42;39.33;;;27.80;;
48076;SDS011;33854;57.708;12.008;2023-05-16T05:33:09;42.97;;;30.30;;
48076;SDS011;33854;57.708;12.008;2023-05-16T05:35:35;39.08;;;27.92;;
48076;SDS011;33854;57.708;12.008;2023-05-16T05:38:00;35.73;;;28.43;;
48076;SDS011;33854;57.708;12.008;2023-05-16T05:40:26;35.40;;;28.27;;
48076;SDS011;33854;57.708;12.008;2023-05-16T05:42:51;34.33;;;27.63;;
48076;SDS011;33854;57.708;12.008;2023-05-16T05:45:17;41.27;;;29.47;;
48076;SDS011;33854;57.708;12.008;2023-05-16T05:47:42;33.43;;;27.53;;
48076;SDS011;33854;57.708;12.008;2023-05-16T05:50:08;36.77;;;25.53;;
48076;SDS011;33854;57.708;12.008;2023-05-16T05:52:35;32.70;;;25.65;;
48076;SDS011;33854;57.708;12.008;2023-05-16T05:55:01;30.13;;;24.65;;
48076;SDS011;33854;57.708;12.008;2023-05-16T05:57:27;33.13;;;26.03;;
48076;SDS011;33854;57.708;12.008;2023-05-16T05:59:53;32.57;;;25.83;;
48076;SDS011;33854;57.708;12.008;2023-05-16T06:02:18;32.90;;;25.37;;
48076;SDS011;33854;57.708;12.008;2023-05-16T06:04:44;33.28;;;26.27;;
48076;SDS011;33854;57.708;12.008;2023-05-16T06:07:10;33.70;;;26.17;;
48076;SDS011;33854;57.708;12.008;2023-05-16T06:09:35;33.77;;;26.33;;
48076;SDS011;33854;57.708;12.008;2023-05-16T06:12:01;33.93;;;25.13;;
48076;SDS011;33854;57.708;12.008;2023-05-16T06:14:28;34.60;;;25.98;;
48076;SDS011;33854;57.708;12.008;2023-05-16T06:16:53;35.60;;;26.07;;
48076;SDS011;33854;57.708;12.008;2023-05-16T06:19:19;31.53;;;25.63;;
48076;SDS011;33854;57.708;12.008;2023-05-16T06:21:44;34.73;;;25.60;;
48076;SDS011;33854;57.708;12.008;2023-05-16T06:24:10;33.37;;;22.70;;
48076;SDS011;33854;57.708;12.008;2023-05-16T06:26:36;30.85;;;23.98;;
48076;SDS011;33854;57.708;12.008;2023-05-16T06:29:01;28.67;;;24.63;;
48076;SDS011;33854;57.708;12.008;2023-05-16T06:31:27;29.90;;;26.00;;
48076;SDS011;33854;57.708;12.008;2023-05-16T06:33:52;27.93;;;23.43;;
48076;SDS011;33854;57.708;12.008;2023-05-16T06:36:18;28.83;;;22.00;;
48076;SDS011;33854;57.708;12.008;2023-05-16T06:38:43;27.83;;;21.57;;
48076;SDS011;33854;57.708;12.008;2023-05-16T06:41:09;26.27;;;19.07;;
48076;SDS011;33854;57.708;12.008;2023-05-16T06:43:34;21.17;;;14.97;;
48076;SDS011;33854;57.708;12.008;2023-05-16T06:46:00;17.87;;;12.77;;
48076;SDS011;33854;57.708;12.008;2023-05-16T06:48:25;15.07;;;11.87;;
48076;SDS011;33854;57.708;12.008;2023-05-16T06:50:51;11.83;;;10.67;;
48076;SDS011;33854;57.708;12.008;2023-05-16T06:53:17;11.30;;;9.10;;
48076;SDS011;33854;57.708;12.008;2023-05-16T06:55:43;11.90;;;9.82;;
48076;SDS011;33854;57.708;12.008;2023-05-16T06:58:09;12.13;;;9.13;;
48076;SDS011;33854;57.708;12.008;2023-05-16T07:00:34;12.00;;;8.73;;
48076;SDS011;33854;57.708;12.008;2023-05-16T07:03:00;12.85;;;8.70;;
48076;SDS011;33854;57.708;12.008;2023-05-16T07:05:26;12.13;;;8.70;;
48076;SDS011;33854;57.708;12.008;2023-05-16T07:07:51;11.97;;;8.23;;
48076;SDS011;33854;57.708;12.008;2023-05-16T07:10:16;9.73;;;8.17;;
48076;SDS011;33854;57.708;12.008;2023-05-16T07:12:42;9.37;;;7.67;;
48076;SDS011;33854;57.708;12.008;2023-05-16T07:15:08;9.47;;;8.47;;
48076;SDS011;33854;57.708;12.008;2023-05-16T07:17:33;10.48;;;8.27;;
48076;SDS011;33854;57.708;12.008;2023-05-16T07:19:59;11.53;;;7.90;;
48076;SDS011;33854;57.708;12.008;2023-05-16T07:22:25;9.20;;;7.70;;
48076;SDS011;33854;57.708;12.008;2023-05-16T07:24:50;11.40;;;8.10;;
48076;SDS011;33854;57.708;12.008;2023-05-16T07:27:18;13.30;;;7.38;;
48076;SDS011;33854;57.708;12.008;2023-05-16T07:29:43;9.83;;;7.40;;
48076;SDS011;33854;57.708;12.008;2023-05-16T07:32:09;9.27;;;7.95;;
48076;SDS011;33854;57.708;12.008;2023-05-16T07:34:35;11.33;;;7.27;;
48076;SDS011;33854;57.708;12.008;2023-05-16T07:37:00;11.90;;;7.40;;
48076;SDS011;33854;57.708;12.008;2023-05-16T07:39:26;13.37;;;8.10;;
48076;SDS011;33854;57.708;12.008;2023-05-16T07:41:51;12.60;;;7.90;;
48076;SDS011;33854;57.708;12.008;2023-05-16T07:44:17;8.87;;;6.93;;
48076;SDS011;33854;57.708;12.008;2023-05-16T07:46:42;13.60;;;7.83;;
48076;SDS011;33854;57.708;12.008;2023-05-16T07:49:08;12.27;;;7.70;;
48076;SDS011;33854;57.708;12.008;2023-05-16T07:51:34;12.40;;;7.93;;
48076;SDS011;33854;57.708;12.008;2023-05-16T07:54:00;10.33;;;7.10;;
48076;SDS011;33854;57.708;12.008;2023-05-16T07:56:26;10.33;;;7.13;;
48076;SDS011;33854;57.708;12.008;2023-05-16T07:58:51;12.70;;;7.30;;
48076;SDS011;33854;57.708;12.008;2023-05-16T08:01:17;11.43;;;7.90;;
48076;SDS011;33854;57.708;12.008;2023-05-16T08:03:43;16.97;;;6.80;;
48076;SDS011;33854;57.708;12.008;2023-05-16T08:06:08;11.03;;;6.30;;
48076;SDS011;33854;57.708;12.008;2023-05-16T08:08:34;10.40;;;7.80;;
48076;SDS011;33854;57.708;12.008;2023-05-16T08:10:59;16.33;;;7.80;;
48076;SDS011;33854;57.708;12.008;2023-05-16T08:13:25;11.67;;;7.90;;
48076;SDS011;33854;57.708;12.008;2023-05-16T08:15:50;10.77;;;8.80;;
48076;SDS011;33854;57.708;12.008;2023-05-16T08:18:16;12.83;;;8.50;;
48076;SDS011;33854;57.708;12.008;2023-05-16T08:20:41;15.07;;;7.73;;
48076;SDS011;33854;57.708;12.008;2023-05-16T08:23:07;13.55;;;7.90;;
48076;SDS011;33854;57.708;12.008;2023-05-16T08:25:33;15.02;;;7.45;;
48076;SDS011;33854;57.708;12.008;2023-05-16T08:27:59;9.88;;;7.07;;
48076;SDS011;33854;57.708;12.008;2023-05-16T08:32:51;12.73;;;7.45;;
48076;SDS011;33854;57.708;12.008;2023-05-16T08:35:17;15.67;;;7.83;;
48076;SDS011;33854;57.708;12.008;2023-05-16T08:37:42;19.27;;;7.30;;
48076;SDS011;33854;57.708;12.008;2023-05-16T08:40:08;12.77;;;6.30;;
48076;SDS011;33854;57.708;12.008;2023-05-16T08:45:00;11.02;;;6.68;;
48076;SDS011;33854;57.708;12.008;2023-05-16T08:47:25;12.83;;;6.47;;
48076;SDS011;33854;57.708;12.008;2023-05-16T08:49:55;10.88;;;5.63;;
48076;SDS011;33854;57.708;12.008;2023-05-16T08:52:22;9.07;;;5.50;;
48076;SDS011;33854;57.708;12.008;2023-05-16T08:54:52;15.52;;;5.22;;
48076;SDS011;33854;57.708;12.008;2023-05-16T08:57:19;10.07;;;5.53;;
48076;SDS011;33854;57.708;12.008;2023-05-16T08:59:45;10.90;;;5.18;;
48076;SDS011;33854;57.708;12.008;2023-05-16T09:02:11;12.57;;;5.17;;
48076;SDS011;33854;57.708;12.008;2023-05-16T09:04:37;7.00;;;4.55;;
48076;SDS011;33854;57.708;12.008;2023-05-16T09:07:03;7.15;;;5.00;;
48076;SDS011;33854;57.708;12.008;2023-05-16T09:09:28;9.37;;;4.90;;
48076;SDS011;33854;57.708;12.008;2023-05-16T09:11:54;12.07;;;5.60;;
48076;SDS011;33854;57.708;12.008;2023-05-16T09:14:20;7.07;;;4.63;;
48076;SDS011;33854;57.708;12.008;2023-05-16T09:17:01;6.80;;;5.57;;
48076;SDS011;33854;57.708;12.008;2023-05-16T09:19:31;7.78;;;5.13;;
48076;SDS011;33854;57.708;12.008;2023-05-16T09:22:10;6.93;;;5.32;;
48076;SDS011;33854;57.708;12.008;2023-05-16T09:24:41;10.40;;;5.63;;
48076;SDS011;33854;57.708;12.008;2023-05-16T09:27:12;8.18;;;5.35;;
48076;SDS011;33854;57.708;12.008;2023-05-16T09:29:39;10.48;;;5.70;;
48076;SDS011;33854;57.708;12.008;2023-05-16T09:32:12;6.80;;;5.00;;
48076;SDS011;33854;57.708;12.008;2023-05-16T09:34:46;6.57;;;4.38;;
48076;SDS011;33854;57.708;12.008;2023-05-16T09:37:13;7.03;;;4.30;;
48076;SDS011;33854;57.708;12.008;2023-05-16T09:42:12;8.52;;;4.32;;
48076;SDS011;33854;57.708;12.008;2023-05-16T09:44:39;7.72;;;4.00;;
48076;SDS011;33854;57.708;12.008;2023-05-16T09:47:05;10.57;;;4.60;;
48076;SDS011;33854;57.708;12.008;2023-05-16T09:49:30;8.25;;;4.75;;
48076;SDS011;33854;57.708;12.008;2023-05-16T09:51:59;8.30;;;5.27;;
48076;SDS011;33854;57.708;12.008;2023-05-16T09:54:32;16.67;;;5.00;;
48076;SDS011;33854;57.708;12.008;2023-05-16T09:56:58;6.85;;;5.70;;
48076;SDS011;33854;57.708;12.008;2023-05-16T09:59:25;10.68;;;5.07;;
48076;SDS011;33854;57.708;12.008;2023-05-16T10:01:52;9.88;;;4.75;;
48076;SDS011;33854;57.708;12.008;2023-05-16T10:04:19;11.20;;;5.13;;
48076;SDS011;33854;57.708;12.008;2023-05-16T10:06:44;11.40;;;5.43;;
48076;SDS011;33854;57.708;12.008;2023-05-16T10:09:10;13.20;;;5.47;;
48076;SDS011;33854;57.708;12.008;2023-05-16T10:14:06;11.63;;;5.68;;
48076;SDS011;33854;57.708;12.008;2023-05-16T10:16:35;11.10;;;5.60;;
48076;SDS011;33854;57.708;12.008;2023-05-16T10:19:02;9.93;;;4.97;;
48076;SDS011;33854;57.708;12.008;2023-05-16T10:21:28;12.65;;;5.47;;
48076;SDS011;33854;57.708;12.008;2023-05-16T10:23:56;12.48;;;6.00;;
48076;SDS011;33854;57.708;12.008;2023-05-16T10:26:26;13.18;;;5.72;;
48076;SDS011;33854;57.708;12.008;2023-05-16T10:28:53;8.90;;;5.75;;
48076;SDS011;33854;57.708;12.008;2023-05-16T10:31:19;10.55;;;4.50;;
48076;SDS011;33854;57.708;12.008;2023-05-16T10:33:45;13.40;;;5.03;;
48076;SDS011;33854;57.708;12.008;2023-05-16T10:36:11;10.02;;;4.20;;
48076;SDS011;33854;57.708;12.008;2023-05-16T10:38:38;9.75;;;5.50;;
48076;SDS011;33854;57.708;12.008;2023-05-16T10:41:05;7.63;;;5.10;;
48076;SDS011;33854;57.708;12.008;2023-05-16T10:43:31;10.57;;;5.45;;
48076;SDS011;33854;57.708;12.008;2023-05-16T10:48:36;12.77;;;5.32;;
48076;SDS011;33854;57.708;12.008;2023-05-16T10:51:03;11.23;;;5.57;;
48076;SDS011;33854;57.708;12.008;2023-05-16T10:53:50;10.57;;;5.07;;
48076;SDS011;33854;57.708;12.008;2023-05-16T10:56:16;7.47;;;5.45;;
48076;SDS011;33854;57.708;12.008;2023-05-16T10:58:47;7.50;;;4.72;;
48076;SDS011;33854;57.708;12.008;2023-05-16T11:01:17;8.88;;;4.68;;
48076;SDS011;33854;57.708;12.008;2023-05-16T11:06:24;7.40;;;4.47;;
48076;SDS011;33854;57.708;12.008;2023-05-16T11:14:54;5.60;;;3.83;;
48076;SDS011;33854;57.708;12.008;2023-05-16T11:19:46;6.05;;;3.85;;
48076;SDS011;33854;57.708;12.008;2023-05-16T11:27:20;7.63;;;4.15;;
48076;SDS011;33854;57.708;12.008;2023-05-16T11:29:59;5.82;;;3.95;;
48076;SDS011;33854;57.708;12.008;2023-05-16T11:32:38;8.55;;;4.50;;
48076;SDS011;33854;57.708;12.008;2023-05-16T11:35:05;6.40;;;4.13;;
48076;SDS011;33854;57.708;12.008;2023-05-16T11:37:34;6.28;;;4.07;;
48076;SDS011;33854;57.708;12.008;2023-05-16T11:42:34;9.30;;;4.03;;
48076;SDS011;33854;57.708;12.008;2023-05-16T11:45:07;4.55;;;3.35;;
48076;SDS011;33854;57.708;12.008;2023-05-16T11:47:36;5.35;;;3.58;;
48076;SDS011;33854;57.708;12.008;2023-05-16T11:50:06;6.15;;;3.60;;
48076;SDS011;33854;57.708;12.008;2023-05-16T11:52:36;6.10;;;3.80;;
48076;SDS011;33854;57.708;12.008;2023-05-16T11:55:03;5.93;;;3.53;;
48076;SDS011;33854;57.708;12.008;2023-05-16T11:57:30;5.30;;;3.30;;
48076;SDS011;33854;57.708;12.008;2023-05-16T12:00:01;5.68;;;3.38;;
48076;SDS011;33854;57.708;12.008;2023-05-16T12:02:46;7.00;;;3.20;;
48076;SDS011;33854;57.708;12.008;2023-05-16T12:05:15;7.07;;;3.47;;
48076;SDS011;33854;57.708;12.008;2023-05-16T12:07:42;8.77;;;4.38;;
48076;SDS011;33854;57.708;12.008;2023-05-16T12:10:09;8.95;;;4.38;;
48076;SDS011;33854;57.708;12.008;2023-05-16T12:12:37;6.80;;;3.78;;
48076;SDS011;33854;57.708;12.008;2023-05-16T12:15:04;12.85;;;3.63;;
48076;SDS011;33854;57.708;12.008;2023-05-16T12:17:33;5.75;;;3.70;;
48076;SDS011;33854;57.708;12.008;2023-05-16T12:20:04;7.75;;;3.67;;
48076;SDS011;33854;57.708;12.008;2023-05-16T12:22:31;8.45;;;3.67;;
48076;SDS011;33854;57.708;12.008;2023-05-16T12:27:45;10.70;;;4.65;;
48076;SDS011;33854;57.708;12.008;2023-05-16T12:30:10;8.43;;;4.20;;
48076;SDS011;33854;57.708;12.008;2023-05-16T12:32:37;9.00;;;4.00;;
48076;SDS011;33854;57.708;12.008;2023-05-16T12:35:02;7.87;;;3.87;;
48076;SDS011;33854;57.708;12.008;2023-05-16T12:37:28;8.80;;;3.70;;
48076;SDS011;33854;57.708;12.008;2023-05-16T12:39:58;9.20;;;3.70;;
48076;SDS011;33854;57.708;12.008;2023-05-16T12:42:25;18.70;;;5.30;;
48076;SDS011;33854;57.708;12.008;2023-05-16T12:44:54;8.18;;;3.78;;
48076;SDS011;33854;57.708;12.008;2023-05-16T12:47:20;10.07;;;4.10;;
48076;SDS011;33854;57.708;12.008;2023-05-16T12:49:46;8.60;;;3.63;;
48076;SDS011;33854;57.708;12.008;2023-05-16T12:54:45;6.55;;;3.65;;
48076;SDS011;33854;57.708;12.008;2023-05-16T12:57:13;9.15;;;3.67;;
48076;SDS011;33854;57.708;12.008;2023-05-16T12:59:39;7.17;;;4.10;;
48076;SDS011;33854;57.708;12.008;2023-05-16T13:02:04;8.60;;;4.07;;
48076;SDS011;33854;57.708;12.008;2023-05-16T13:04:30;9.20;;;4.20;;
48076;SDS011;33854;57.708;12.008;2023-05-16T13:06:55;5.87;;;3.47;;
48076;SDS011;33854;57.708;12.008;2023-05-16T13:09:21;11.70;;;5.27;;
48076;SDS011;33854;57.708;12.008;2023-05-16T13:14:13;5.88;;;3.45;;
48076;SDS011;33854;57.708;12.008;2023-05-16T13:16:38;7.43;;;4.13;;
48076;SDS011;33854;57.708;12.008;2023-05-16T13:19:04;7.33;;;3.90;;
48076;SDS011;33854;57.708;12.008;2023-05-16T13:21:30;4.50;;;3.63;;
48076;SDS011;33854;57.708;12.008;2023-05-16T13:23:56;10.45;;;3.90;;
48076;SDS011;33854;57.708;12.008;2023-05-16T13:26:23;8.55;;;3.70;;
48076;SDS011;33854;57.708;12.008;2023-05-16T13:28:48;10.27;;;3.93;;
48076;SDS011;33854;57.708;12.008;2023-05-16T13:31:17;9.20;;;4.25;;
48076;SDS011;33854;57.708;12.008;2023-05-16T13:33:43;4.07;;;3.78;;
48076;SDS011;33854;57.708;12.008;2023-05-16T13:36:08;7.95;;;4.13;;
48076;SDS011;33854;57.708;12.008;2023-05-16T13:38:34;8.53;;;4.20;;
48076;SDS011;33854;57.708;12.008;2023-05-16T13:41:00;6.45;;;4.40;;
48076;SDS011;33854;57.708;12.008;2023-05-16T13:43:25;7.37;;;3.80;;
48076;SDS011;33854;57.708;12.008;2023-05-16T13:45:51;8.10;;;4.47;;
48076;SDS011;33854;57.708;12.008;2023-05-16T13:48:16;8.25;;;4.22;;
48076;SDS011;33854;57.708;12.008;2023-05-16T13:50:42;6.57;;;4.00;;
48076;SDS011;33854;57.708;12.008;2023-05-16T13:53:07;10.80;;;4.40;;
48076;SDS011;33854;57.708;12.008;2023-05-16T13:55:33;4.73;;;4.33;;
48076;SDS011;33854;57.708;12.008;2023-05-16T13:57:58;11.70;;;4.63;;
48076;SDS011;33854;57.708;12.008;2023-05-16T14:00:24;7.47;;;4.90;;
48076;SDS011;33854;57.708;12.008;2023-05-16T14:02:50;9.40;;;4.85;;
48076;SDS011;33854;57.708;12.008;2023-05-16T14:05:16;7.60;;;5.00;;
48076;SDS011;33854;57.708;12.008;2023-05-16T14:07:42;7.00;;;4.77;;
48076;SDS011;33854;57.708;12.008;2023-05-16T14:10:08;8.87;;;4.63;;
48076;SDS011;33854;57.708;12.008;2023-05-16T14:12:33;9.57;;;5.15;;
48076;SDS011;33854;57.708;12.008;2023-05-16T14:14:59;9.20;;;5.43;;
48076;SDS011;33854;57.708;12.008;2023-05-16T14:17:24;8.00;;;4.93;;
48076;SDS011;33854;57.708;12.008;2023-05-16T14:19:50;10.90;;;4.45;;
48076;SDS011;33854;57.708;12.008;2023-05-16T14:24:43;8.13;;;4.63;;
48076;SDS011;33854;57.708;12.008;2023-05-16T14:27:08;6.60;;;4.70;;
48076;SDS011;33854;57.708;12.008;2023-05-16T14:29:34;9.57;;;5.30;;
48076;SDS011;33854;57.708;12.008;2023-05-16T14:31:59;9.90;;;5.30;;
48076;SDS011;33854;57.708;12.008;2023-05-16T14:34:25;12.27;;;5.17;;
48076;SDS011;33854;57.708;12.008;2023-05-16T14:36:50;8.50;;;4.70;;
48076;SDS011;33854;57.708;12.008;2023-05-16T14:39:16;11.93;;;5.40;;
48076;SDS011;33854;57.708;12.008;2023-05-16T14:41:41;6.57;;;5.10;;
48076;SDS011;33854;57.708;12.008;2023-05-16T14:44:07;9.70;;;5.43;;
48076;SDS011;33854;57.708;12.008;2023-05-16T14:46:32;12.03;;;5.53;;
48076;SDS011;33854;57.708;12.008;2023-05-16T14:48:58;9.30;;;5.47;;
48076;SDS011;33854;57.708;12.008;2023-05-16T14:51:23;8.73;;;5.57;;
48076;SDS011;33854;57.708;12.008;2023-05-16T14:53:49;11.67;;;5.77;;
48076;SDS011;33854;57.708;12.008;2023-05-16T14:56:14;8.27;;;4.87;;
48076;SDS011;33854;57.708;12.008;2023-05-16T14:58:40;8.40;;;5.50;;
48076;SDS011;33854;57.708;12.008;2023-05-16T15:01:05;6.20;;;5.60;;
48076;SDS011;33854;57.708;12.008;2023-05-16T15:03:31;9.83;;;5.97;;
48076;SDS011;33854;57.708;12.008;2023-05-16T15:05:57;10.25;;;6.63;;
48076;SDS011;33854;57.708;12.008;2023-05-16T15:08:22;10.87;;;6.40;;
48076;SDS011;33854;57.708;12.008;2023-05-16T15:10:48;11.73;;;6.73;;